sensor_id;sensor_type;location;lat;lon;timestamp;pressure;altitude;pressure_sealevel;temperature;humidity
32733;BME280;11867;51.198;11.966;2023-05-23T00:01:05;100080.63;;;20.82;78.89
32733;BME280;11867;51.198;11.966;2023-05-23T00:02:28;100080.81;;;21.05;78.26
32733;BME280;11867;51.198;11.966;2023-05-23T00:03:51;100075.28;;;21.05;76.37
32733;BME280;11867;51.198;11.966;2023-05-23T00:05:16;100076.34;;;21.16;77.09
32733;BME280;11867;51.198;11.966;2023-05-23T00:06:38;100075.00;;;21.10;77.80
32733;BME280;11867;51.198;11.966;2023-05-23T00:08:05;100077.31;;;21.08;77.62
32733;BME280;11867;51.198;11.966;2023-05-23T00:09:27;100069.09;;;21.12;78.21
32733;BME280;11867;51.198;11.966;2023-05-23T00:10:50;100076.88;;;21.06;78.92
32733;BME280;11867;51.198;11.966;2023-05-23T00:12:12;100074.91;;;20.75;80.39
32733;BME280;11867;51.198;11.966;2023-05-23T00:13:35;100069.81;;;20.77;79.70
32733;BME280;11867;51.198;11.966;2023-05-23T00:14:58;100076.25;;;20.81;80.09
32733;BME280;11867;51.198;11.966;2023-05-23T00:16:22;100071.00;;;20.92;79.53
32733;BME280;11867;51.198;11.966;2023-05-23T00:17:44;100072.88;;;20.88;80.03
32733;BME280;11867;51.198;11.966;2023-05-23T00:19:08;100080.72;;;21.02;80.28
32733;BME280;11867;51.198;11.966;2023-05-23T00:20:30;100077.09;;;20.25;83.04
32733;BME280;11867;51.198;11.966;2023-05-23T00:21:55;100071.94;;;20.24;83.37
32733;BME280;11867;51.198;11.966;2023-05-23T00:23:19;100069.44;;;20.34;82.94
32733;BME280;11867;51.198;11.966;2023-05-23T00:24:43;100069.16;;;20.24;83.82
32733;BME280;11867;51.198;11.966;2023-05-23T00:26:06;100066.00;;;20.25;83.42
32733;BME280;11867;51.198;11.966;2023-05-23T00:27:27;100060.97;;;20.43;82.96
32733;BME280;11867;51.198;11.966;2023-05-23T00:28:50;100061.25;;;20.54;82.43
32733;BME280;11867;51.198;11.966;2023-05-23T00:30:13;100058.56;;;20.42;83.05
32733;BME280;11867;51.198;11.966;2023-05-23T00:31:38;100049.19;;;20.46;82.10
32733;BME280;11867;51.198;11.966;2023-05-23T00:33:00;100051.56;;;20.60;82.19
32733;BME280;11867;51.198;11.966;2023-05-23T00:34:22;100045.44;;;20.54;81.60
32733;BME280;11867;51.198;11.966;2023-05-23T00:35:44;100047.19;;;20.75;80.72
32733;BME280;11867;51.198;11.966;2023-05-23T00:37:07;100047.38;;;20.82;80.77
32733;BME280;11867;51.198;11.966;2023-05-23T00:38:30;100041.50;;;20.84;80.95
32733;BME280;11867;51.198;11.966;2023-05-23T00:39:52;100036.22;;;20.94;80.40
32733;BME280;11867;51.198;11.966;2023-05-23T00:41:15;100031.53;;;20.51;82.15
32733;BME280;11867;51.198;11.966;2023-05-23T00:42:39;100032.56;;;20.46;82.77
32733;BME280;11867;51.198;11.966;2023-05-23T00:44:02;100036.66;;;19.80;85.50
32733;BME280;11867;51.198;11.966;2023-05-23T00:45:24;100042.38;;;19.10;89.53
32733;BME280;11867;51.198;11.966;2023-05-23T00:46:51;100046.88;;;19.39;88.55
32733;BME280;11867;51.198;11.966;2023-05-23T00:48:15;100043.88;;;19.20;89.44
32733;BME280;11867;51.198;11.966;2023-05-23T00:49:37;100045.22;;;19.50;87.76
32733;BME280;11867;51.198;11.966;2023-05-23T00:51:01;100058.34;;;19.78;86.20
32733;BME280;11867;51.198;11.966;2023-05-23T00:52:23;100050.56;;;19.43;87.72
32733;BME280;11867;51.198;11.966;2023-05-23T00:53:46;100054.56;;;19.58;87.04
32733;BME280;11867;51.198;11.966;2023-05-23T00:55:10;100058.59;;;19.73;86.93
32733;BME280;11867;51.198;11.966;2023-05-23T00:56:32;100060.56;;;19.72;86.27
32733;BME280;11867;51.198;11.966;2023-05-23T00:57:56;100060.44;;;19.44;87.38
32733;BME280;11867;51.198;11.966;2023-05-23T00:59:19;100052.28;;;19.35;88.28
32733;BME280;11867;51.198;11.966;2023-05-23T01:00:43;100060.88;;;19.59;87.54
32733;BME280;11867;51.198;11.966;2023-05-23T01:02:07;100063.53;;;19.67;87.21
32733;BME280;11867;51.198;11.966;2023-05-23T01:03:29;100067.13;;;19.68;86.90
32733;BME280;11867;51.198;11.966;2023-05-23T01:04:54;100064.75;;;19.94;85.71
32733;BME280;11867;51.198;11.966;2023-05-23T01:06:16;100065.91;;;19.93;85.75
32733;BME280;11867;51.198;11.966;2023-05-23T01:07:39;100071.94;;;19.59;87.34
32733;BME280;11867;51.198;11.966;2023-05-23T01:09:01;100066.19;;;19.64;87.27
32733;BME280;11867;51.198;11.966;2023-05-23T01:10:26;100070.94;;;19.39;87.92
32733;BME280;11867;51.198;11.966;2023-05-23T01:11:54;100067.84;;;19.28;88.98
32733;BME280;11867;51.198;11.966;2023-05-23T01:13:33;100056.09;;;19.43;88.16
32733;BME280;11867;51.198;11.966;2023-05-23T01:15:06;100060.00;;;19.42;88.49
32733;BME280;11867;51.198;11.966;2023-05-23T01:16:31;100063.91;;;19.53;87.89
32733;BME280;11867;51.198;11.966;2023-05-23T01:18:01;100063.00;;;19.37;88.35
32733;BME280;11867;51.198;11.966;2023-05-23T01:19:48;100069.22;;;19.34;88.93
32733;BME280;11867;51.198;11.966;2023-05-23T01:21:16;100073.00;;;19.05;91.05
32733;BME280;11867;51.198;11.966;2023-05-23T01:22:57;100064.94;;;19.36;89.69
32733;BME280;11867;51.198;11.966;2023-05-23T01:24:31;100065.97;;;19.44;89.73
32733;BME280;11867;51.198;11.966;2023-05-23T01:26:12;100074.97;;;19.04;91.27
32733;BME280;11867;51.198;11.966;2023-05-23T01:27:59;100072.88;;;19.01;91.87
32733;BME280;11867;51.198;11.966;2023-05-23T01:29:25;100073.78;;;18.93;92.50
32733;BME280;11867;51.198;11.966;2023-05-23T01:30:51;100066.31;;;18.81;94.19
32733;BME280;11867;51.198;11.966;2023-05-23T01:32:15;100065.88;;;19.16;92.45
32733;BME280;11867;51.198;11.966;2023-05-23T01:33:39;100066.78;;;19.32;91.19
32733;BME280;11867;51.198;11.966;2023-05-23T01:35:03;100076.22;;;18.94;93.84
32733;BME280;11867;51.198;11.966;2023-05-23T01:36:27;100066.41;;;18.85;93.97
32733;BME280;11867;51.198;11.966;2023-05-23T01:37:49;100076.25;;;19.07;93.65
32733;BME280;11867;51.198;11.966;2023-05-23T01:39:11;100066.31;;;19.06;93.65
32733;BME280;11867;51.198;11.966;2023-05-23T01:40:35;100069.44;;;19.04;94.06
32733;BME280;11867;51.198;11.966;2023-05-23T01:41:58;100077.03;;;18.95;94.60
32733;BME280;11867;51.198;11.966;2023-05-23T01:43:22;100077.97;;;19.11;93.69
32733;BME280;11867;51.198;11.966;2023-05-23T01:44:46;100082.22;;;19.09;94.18
32733;BME280;11867;51.198;11.966;2023-05-23T01:46:09;100074.97;;;19.04;93.22
32733;BME280;11867;51.198;11.966;2023-05-23T01:47:34;100084.28;;;19.12;92.88
32733;BME280;11867;51.198;11.966;2023-05-23T01:48:57;100097.75;;;19.01;94.48
32733;BME280;11867;51.198;11.966;2023-05-23T01:50:21;100087.84;;;18.88;95.22
32733;BME280;11867;51.198;11.966;2023-05-23T01:51:45;100081.34;;;18.71;96.23
32733;BME280;11867;51.198;11.966;2023-05-23T01:53:07;100084.53;;;18.61;96.84
32733;BME280;11867;51.198;11.966;2023-05-23T01:54:32;100082.09;;;18.60;96.90
32733;BME280;11867;51.198;11.966;2023-05-23T01:55:56;100078.84;;;18.79;96.30
32733;BME280;11867;51.198;11.966;2023-05-23T01:57:19;100083.25;;;18.92;95.16
32733;BME280;11867;51.198;11.966;2023-05-23T01:58:43;100072.31;;;19.08;93.86
32733;BME280;11867;51.198;11.966;2023-05-23T02:00:06;100076.69;;;19.09;93.63
32733;BME280;11867;51.198;11.966;2023-05-23T02:01:32;100077.84;;;18.95;94.52
32733;BME280;11867;51.198;11.966;2023-05-23T02:02:55;100080.59;;;18.83;95.33
32733;BME280;11867;51.198;11.966;2023-05-23T02:04:17;100085.88;;;18.88;95.58
32733;BME280;11867;51.198;11.966;2023-05-23T02:05:40;100080.03;;;18.90;94.63
32733;BME280;11867;51.198;11.966;2023-05-23T02:07:04;100081.75;;;17.94;100.00
32733;BME280;11867;51.198;11.966;2023-05-23T02:08:26;100084.22;;;18.08;100.00
32733;BME280;11867;51.198;11.966;2023-05-23T02:09:49;100086.78;;;18.47;98.72
32733;BME280;11867;51.198;11.966;2023-05-23T02:11:12;100085.47;;;18.65;97.18
32733;BME280;11867;51.198;11.966;2023-05-23T02:12:34;100083.72;;;18.61;97.00
32733;BME280;11867;51.198;11.966;2023-05-23T02:13:58;100084.25;;;18.54;97.67
32733;BME280;11867;51.198;11.966;2023-05-23T02:15:21;100090.25;;;18.56;97.18
32733;BME280;11867;51.198;11.966;2023-05-23T02:16:44;100085.84;;;18.43;97.72
32733;BME280;11867;51.198;11.966;2023-05-23T02:18:07;100086.56;;;18.52;97.76
32733;BME280;11867;51.198;11.966;2023-05-23T02:19:29;100086.69;;;18.55;97.45
32733;BME280;11867;51.198;11.966;2023-05-23T02:20:52;100089.22;;;18.15;100.00
32733;BME280;11867;51.198;11.966;2023-05-23T02:22:14;100085.72;;;18.39;98.97
32733;BME280;11867;51.198;11.966;2023-05-23T02:23:37;100083.59;;;18.57;96.99
32733;BME280;11867;51.198;11.966;2023-05-23T02:24:59;100083.97;;;18.34;98.45
32733;BME280;11867;51.198;11.966;2023-05-23T02:26:22;100094.06;;;17.97;100.00
32733;BME280;11867;51.198;11.966;2023-05-23T02:27:45;100092.84;;;18.07;100.00
32733;BME280;11867;51.198;11.966;2023-05-23T02:29:08;100095.72;;;18.10;99.93
32733;BME280;11867;51.198;11.966;2023-05-23T02:30:31;100092.41;;;18.38;98.55
32733;BME280;11867;51.198;11.966;2023-05-23T02:31:54;100095.25;;;18.29;97.79
32733;BME280;11867;51.198;11.966;2023-05-23T02:33:16;100086.22;;;18.20;98.98
32733;BME280;11867;51.198;11.966;2023-05-23T02:34:40;100091.53;;;18.04;99.67
32733;BME280;11867;51.198;11.966;2023-05-23T02:36:02;100098.69;;;17.84;100.00
32733;BME280;11867;51.198;11.966;2023-05-23T02:37:25;100097.56;;;17.77;100.00
32733;BME280;11867;51.198;11.966;2023-05-23T02:38:47;100104.00;;;17.89;100.00
32733;BME280;11867;51.198;11.966;2023-05-23T02:40:10;100101.28;;;17.81;100.00
32733;BME280;11867;51.198;11.966;2023-05-23T02:41:32;100102.00;;;17.99;100.00
32733;BME280;11867;51.198;11.966;2023-05-23T02:42:55;100111.06;;;18.20;99.64
32733;BME280;11867;51.198;11.966;2023-05-23T02:44:19;100109.06;;;18.29;98.08
32733;BME280;11867;51.198;11.966;2023-05-23T02:45:42;100106.69;;;18.19;99.03
32733;BME280;11867;51.198;11.966;2023-05-23T02:47:04;100098.94;;;18.33;98.51
32733;BME280;11867;51.198;11.966;2023-05-23T02:48:28;100108.06;;;18.13;99.25
32733;BME280;11867;51.198;11.966;2023-05-23T02:49:50;100108.28;;;17.78;100.00
32733;BME280;11867;51.198;11.966;2023-05-23T02:51:13;100098.44;;;17.68;100.00
32733;BME280;11867;51.198;11.966;2023-05-23T02:52:35;100104.56;;;17.74;100.00
32733;BME280;11867;51.198;11.966;2023-05-23T02:53:58;100100.44;;;17.89;100.00
32733;BME280;11867;51.198;11.966;2023-05-23T02:55:20;100092.06;;;17.77;100.00
32733;BME280;11867;51.198;11.966;2023-05-23T02:56:44;100089.25;;;17.26;100.00
32733;BME280;11867;51.198;11.966;2023-05-23T02:58:06;100092.91;;;17.47;100.00
32733;BME280;11867;51.198;11.966;2023-05-23T02:59:30;100096.94;;;17.71;100.00
32733;BME280;11867;51.198;11.966;2023-05-23T03:00:53;100094.69;;;17.43;100.00
32733;BME280;11867;51.198;11.966;2023-05-23T03:02:15;100087.31;;;17.56;100.00
32733;BME280;11867;51.198;11.966;2023-05-23T03:03:38;100093.31;;;17.58;100.00
32733;BME280;11867;51.198;11.966;2023-05-23T03:05:02;100092.44;;;17.66;100.00
32733;BME280;11867;51.198;11.966;2023-05-23T03:06:27;100092.91;;;17.68;100.00
32733;BME280;11867;51.198;11.966;2023-05-23T03:07:50;100095.28;;;17.79;99.84
32733;BME280;11867;51.198;11.966;2023-05-23T03:09:15;100094.88;;;17.68;99.43
32733;BME280;11867;51.198;11.966;2023-05-23T03:10:38;100095.88;;;17.63;100.00
32733;BME280;11867;51.198;11.966;2023-05-23T03:12:00;100090.31;;;17.72;99.46
32733;BME280;11867;51.198;11.966;2023-05-23T03:13:23;100096.84;;;17.67;99.36
32733;BME280;11867;51.198;11.966;2023-05-23T03:14:47;100098.03;;;17.79;99.19
32733;BME280;11867;51.198;11.966;2023-05-23T03:16:10;100102.06;;;17.81;99.22
32733;BME280;11867;51.198;11.966;2023-05-23T03:17:33;100110.47;;;17.93;98.62
32733;BME280;11867;51.198;11.966;2023-05-23T03:18:56;100100.38;;;17.98;98.26
32733;BME280;11867;51.198;11.966;2023-05-23T03:20:18;100104.06;;;18.02;97.25
32733;BME280;11867;51.198;11.966;2023-05-23T03:21:41;100107.09;;;18.09;97.38
32733;BME280;11867;51.198;11.966;2023-05-23T03:23:04;100108.06;;;18.13;96.99
32733;BME280;11867;51.198;11.966;2023-05-23T03:24:28;100109.03;;;18.08;96.11
32733;BME280;11867;51.198;11.966;2023-05-23T03:25:52;100105.09;;;17.97;98.11
32733;BME280;11867;51.198;11.966;2023-05-23T03:27:14;100105.22;;;18.01;97.32
32733;BME280;11867;51.198;11.966;2023-05-23T03:28:37;100104.13;;;17.93;98.73
32733;BME280;11867;51.198;11.966;2023-05-23T03:30:01;100102.75;;;17.78;99.31
32733;BME280;11867;51.198;11.966;2023-05-23T03:31:24;100108.28;;;17.48;100.00
32733;BME280;11867;51.198;11.966;2023-05-23T03:32:47;100111.91;;;17.70;100.00
32733;BME280;11867;51.198;11.966;2023-05-23T03:34:10;100110.84;;;17.83;98.81
32733;BME280;11867;51.198;11.966;2023-05-23T03:35:33;100114.09;;;17.85;98.45
32733;BME280;11867;51.198;11.966;2023-05-23T03:36:56;100117.78;;;17.89;97.92
32733;BME280;11867;51.198;11.966;2023-05-23T03:38:19;100115.03;;;17.89;98.30
32733;BME280;11867;51.198;11.966;2023-05-23T03:39:42;100115.50;;;17.62;100.00
32733;BME280;11867;51.198;11.966;2023-05-23T03:41:04;100114.94;;;17.47;100.00
32733;BME280;11867;51.198;11.966;2023-05-23T03:42:27;100120.06;;;17.28;100.00
32733;BME280;11867;51.198;11.966;2023-05-23T03:43:51;100117.00;;;17.21;100.00
32733;BME280;11867;51.198;11.966;2023-05-23T03:45:15;100117.00;;;17.21;100.00
32733;BME280;11867;51.198;11.966;2023-05-23T03:46:37;100108.75;;;17.21;100.00
32733;BME280;11867;51.198;11.966;2023-05-23T03:48:01;100117.13;;;17.33;100.00
32733;BME280;11867;51.198;11.966;2023-05-23T03:49:23;100117.97;;;17.54;100.00
32733;BME280;11867;51.198;11.966;2023-05-23T03:50:46;100113.56;;;17.62;99.33
32733;BME280;11867;51.198;11.966;2023-05-23T03:52:09;100114.41;;;17.54;99.31
32733;BME280;11867;51.198;11.966;2023-05-23T03:53:31;100117.22;;;17.45;100.00
32733;BME280;11867;51.198;11.966;2023-05-23T03:54:57;100113.31;;;17.46;100.00
32733;BME280;11867;51.198;11.966;2023-05-23T03:56:20;100116.69;;;17.52;100.00
32733;BME280;11867;51.198;11.966;2023-05-23T03:57:43;100115.31;;;17.37;100.00
32733;BME280;11867;51.198;11.966;2023-05-23T03:59:05;100118.25;;;17.32;100.00
32733;BME280;11867;51.198;11.966;2023-05-23T04:00:30;100125.16;;;17.47;100.00
32733;BME280;11867;51.198;11.966;2023-05-23T04:01:52;100118.31;;;17.53;99.47
32733;BME280;11867;51.198;11.966;2023-05-23T04:03:15;100117.03;;;17.50;99.46
32733;BME280;11867;51.198;11.966;2023-05-23T04:04:39;100123.84;;;17.53;100.00
32733;BME280;11867;51.198;11.966;2023-05-23T04:06:03;100122.25;;;17.43;99.60
32733;BME280;11867;51.198;11.966;2023-05-23T04:07:25;100121.72;;;17.20;100.00
32733;BME280;11867;51.198;11.966;2023-05-23T04:08:48;100133.59;;;17.12;100.00
32733;BME280;11867;51.198;11.966;2023-05-23T04:10:11;100135.22;;;17.04;100.00
32733;BME280;11867;51.198;11.966;2023-05-23T04:11:33;100128.94;;;16.95;100.00
32733;BME280;11867;51.198;11.966;2023-05-23T04:12:56;100135.50;;;17.20;100.00
32733;BME280;11867;51.198;11.966;2023-05-23T04:14:19;100140.97;;;17.29;100.00
32733;BME280;11867;51.198;11.966;2023-05-23T04:15:44;100140.06;;;17.46;100.00
32733;BME280;11867;51.198;11.966;2023-05-23T04:17:08;100138.84;;;17.34;100.00
32733;BME280;11867;51.198;11.966;2023-05-23T04:18:30;100143.69;;;17.38;100.00
32733;BME280;11867;51.198;11.966;2023-05-23T04:19:55;100149.19;;;16.99;100.00
32733;BME280;11867;51.198;11.966;2023-05-23T04:21:18;100141.25;;;16.98;100.00
32733;BME280;11867;51.198;11.966;2023-05-23T04:22:40;100139.97;;;16.86;100.00
32733;BME280;11867;51.198;11.966;2023-05-23T04:24:03;100144.31;;;16.96;100.00
32733;BME280;11867;51.198;11.966;2023-05-23T04:25:26;100146.78;;;16.71;100.00
32733;BME280;11867;51.198;11.966;2023-05-23T04:26:48;100146.91;;;16.92;100.00
32733;BME280;11867;51.198;11.966;2023-05-23T04:28:11;100139.78;;;17.00;100.00
32733;BME280;11867;51.198;11.966;2023-05-23T04:29:33;100140.66;;;17.22;100.00
32733;BME280;11867;51.198;11.966;2023-05-23T04:30:58;100145.91;;;17.06;100.00
32733;BME280;11867;51.198;11.966;2023-05-23T04:32:19;100138.91;;;17.17;100.00
32733;BME280;11867;51.198;11.966;2023-05-23T04:33:43;100144.19;;;16.84;100.00
32733;BME280;11867;51.198;11.966;2023-05-23T04:35:07;100139.47;;;16.75;100.00
32733;BME280;11867;51.198;11.966;2023-05-23T04:36:29;100141.59;;;16.87;100.00
32733;BME280;11867;51.198;11.966;2023-05-23T04:37:52;100147.91;;;16.88;100.00
32733;BME280;11867;51.198;11.966;2023-05-23T04:39:17;100151.47;;;16.80;100.00
32733;BME280;11867;51.198;11.966;2023-05-23T04:40:40;100147.06;;;16.96;100.00
32733;BME280;11867;51.198;11.966;2023-05-23T04:42:02;100148.16;;;17.12;100.00
32733;BME280;11867;51.198;11.966;2023-05-23T04:43:27;100131.91;;;17.20;100.00
32733;BME280;11867;51.198;11.966;2023-05-23T04:44:51;100150.00;;;17.00;100.00
32733;BME280;11867;51.198;11.966;2023-05-23T04:46:14;100152.03;;;17.11;100.00
32733;BME280;11867;51.198;11.966;2023-05-23T04:47:37;100147.19;;;17.08;100.00
32733;BME280;11867;51.198;11.966;2023-05-23T04:49:00;100151.00;;;17.33;100.00
32733;BME280;11867;51.198;11.966;2023-05-23T04:50:22;100154.97;;;17.53;100.00
32733;BME280;11867;51.198;11.966;2023-05-23T04:51:46;100153.44;;;17.65;99.32
32733;BME280;11867;51.198;11.966;2023-05-23T04:53:09;100150.03;;;17.68;100.00
32733;BME280;11867;51.198;11.966;2023-05-23T04:54:33;100153.34;;;17.52;100.00
32733;BME280;11867;51.198;11.966;2023-05-23T04:55:57;100147.81;;;17.52;100.00
32733;BME280;11867;51.198;11.966;2023-05-23T04:57:20;100155.09;;;17.19;100.00
32733;BME280;11867;51.198;11.966;2023-05-23T04:58:42;100150.34;;;17.28;100.00
32733;BME280;11867;51.198;11.966;2023-05-23T05:00:07;100158.38;;;17.50;100.00
32733;BME280;11867;51.198;11.966;2023-05-23T05:01:32;100155.44;;;17.55;100.00
32733;BME280;11867;51.198;11.966;2023-05-23T05:02:55;100158.81;;;17.61;100.00
32733;BME280;11867;51.198;11.966;2023-05-23T05:04:18;100159.63;;;17.62;100.00
32733;BME280;11867;51.198;11.966;2023-05-23T05:05:41;100165.03;;;17.79;99.50
32733;BME280;11867;51.198;11.966;2023-05-23T05:07:03;100166.16;;;17.87;99.36
32733;BME280;11867;51.198;11.966;2023-05-23T05:08:26;100170.44;;;17.67;100.00
32733;BME280;11867;51.198;11.966;2023-05-23T05:09:49;100166.31;;;17.90;97.53
32733;BME280;11867;51.198;11.966;2023-05-23T05:11:12;100175.88;;;18.14;97.08
32733;BME280;11867;51.198;11.966;2023-05-23T05:12:34;100166.56;;;18.19;97.37
32733;BME280;11867;51.198;11.966;2023-05-23T05:13:57;100173.44;;;18.12;96.62
32733;BME280;11867;51.198;11.966;2023-05-23T05:15:19;100172.38;;;18.26;96.18
32733;BME280;11867;51.198;11.966;2023-05-23T05:16:43;100167.13;;;18.12;97.23
32733;BME280;11867;51.198;11.966;2023-05-23T05:18:07;100176.56;;;18.11;97.75
32733;BME280;11867;51.198;11.966;2023-05-23T05:19:29;100174.13;;;18.30;96.61
32733;BME280;11867;51.198;11.966;2023-05-23T05:20:53;100167.41;;;18.40;94.72
32733;BME280;11867;51.198;11.966;2023-05-23T05:22:16;100186.84;;;18.65;93.31
32733;BME280;11867;51.198;11.966;2023-05-23T05:23:39;100180.28;;;18.69;93.39
32733;BME280;11867;51.198;11.966;2023-05-23T05:25:03;100177.13;;;18.80;92.80
32733;BME280;11867;51.198;11.966;2023-05-23T05:26:27;100176.91;;;18.85;93.18
32733;BME280;11867;51.198;11.966;2023-05-23T05:27:49;100173.56;;;18.79;91.91
32733;BME280;11867;51.198;11.966;2023-05-23T05:29:13;100183.72;;;18.87;92.65
32733;BME280;11867;51.198;11.966;2023-05-23T05:30:36;100175.38;;;18.75;93.39
32733;BME280;11867;51.198;11.966;2023-05-23T05:32:01;100183.13;;;18.82;94.15
32733;BME280;11867;51.198;11.966;2023-05-23T05:33:24;100178.66;;;18.89;93.50
32733;BME280;11867;51.198;11.966;2023-05-23T05:34:49;100179.75;;;19.09;92.61
32733;BME280;11867;51.198;11.966;2023-05-23T05:36:12;100186.09;;;19.22;92.27
32733;BME280;11867;51.198;11.966;2023-05-23T05:37:35;100190.84;;;19.34;90.07
32733;BME280;11867;51.198;11.966;2023-05-23T05:38:58;100186.22;;;19.26;90.94
32733;BME280;11867;51.198;11.966;2023-05-23T05:40:21;100184.19;;;19.35;89.92
32733;BME280;11867;51.198;11.966;2023-05-23T05:41:44;100185.09;;;19.39;90.28
32733;BME280;11867;51.198;11.966;2023-05-23T05:43:06;100192.06;;;19.12;91.87
32733;BME280;11867;51.198;11.966;2023-05-23T05:44:28;100192.22;;;19.40;91.32
32733;BME280;11867;51.198;11.966;2023-05-23T05:45:51;100182.69;;;19.38;90.08
32733;BME280;11867;51.198;11.966;2023-05-23T05:47:16;100189.00;;;19.38;90.18
32733;BME280;11867;51.198;11.966;2023-05-23T05:48:39;100190.41;;;19.44;89.20
32733;BME280;11867;51.198;11.966;2023-05-23T05:50:02;100191.19;;;19.57;88.62
32733;BME280;11867;51.198;11.966;2023-05-23T05:51:25;100181.84;;;19.12;91.85
32733;BME280;11867;51.198;11.966;2023-05-23T05:52:48;100198.84;;;19.02;92.05
32733;BME280;11867;51.198;11.966;2023-05-23T05:54:11;100189.44;;;19.15;91.08
32733;BME280;11867;51.198;11.966;2023-05-23T05:55:34;100192.56;;;19.26;90.71
32733;BME280;11867;51.198;11.966;2023-05-23T05:56:57;100194.66;;;19.42;90.41
32733;BME280;11867;51.198;11.966;2023-05-23T05:58:20;100204.00;;;19.37;91.01
32733;BME280;11867;51.198;11.966;2023-05-23T05:59:43;100200.06;;;19.38;91.18
32733;BME280;11867;51.198;11.966;2023-05-23T06:01:06;100196.81;;;19.24;91.87
32733;BME280;11867;51.198;11.966;2023-05-23T06:02:29;100200.16;;;19.29;91.50
32733;BME280;11867;51.198;11.966;2023-05-23T06:03:52;100188.88;;;19.34;91.05
32733;BME280;11867;51.198;11.966;2023-05-23T06:05:15;100197.16;;;19.22;91.37
32733;BME280;11867;51.198;11.966;2023-05-23T06:06:38;100201.16;;;19.00;92.64
32733;BME280;11867;51.198;11.966;2023-05-23T06:08:01;100196.50;;;18.92;92.72
32733;BME280;11867;51.198;11.966;2023-05-23T06:09:24;100192.47;;;18.89;92.53
32733;BME280;11867;51.198;11.966;2023-05-23T06:10:46;100201.94;;;19.01;92.96
32733;BME280;11867;51.198;11.966;2023-05-23T06:12:08;100196.78;;;19.11;92.53
32733;BME280;11867;51.198;11.966;2023-05-23T06:13:31;100198.88;;;19.14;91.05
32733;BME280;11867;51.198;11.966;2023-05-23T06:14:54;100205.53;;;19.13;91.70
32733;BME280;11867;51.198;11.966;2023-05-23T06:16:17;100199.94;;;19.34;89.80
32733;BME280;11867;51.198;11.966;2023-05-23T06:17:41;100202.72;;;19.47;89.69
32733;BME280;11867;51.198;11.966;2023-05-23T06:19:05;100193.41;;;19.39;90.17
32733;BME280;11867;51.198;11.966;2023-05-23T06:20:27;100199.38;;;19.29;90.39
32733;BME280;11867;51.198;11.966;2023-05-23T06:21:50;100203.56;;;19.14;91.47
32733;BME280;11867;51.198;11.966;2023-05-23T06:23:13;100203.50;;;19.23;90.76
32733;BME280;11867;51.198;11.966;2023-05-23T06:24:36;100200.34;;;19.12;91.19
32733;BME280;11867;51.198;11.966;2023-05-23T06:25:59;100203.09;;;19.00;92.00
32733;BME280;11867;51.198;11.966;2023-05-23T06:27:21;100207.03;;;19.11;90.94
32733;BME280;11867;51.198;11.966;2023-05-23T06:28:44;100193.34;;;19.14;91.45
32733;BME280;11867;51.198;11.966;2023-05-23T06:30:08;100209.56;;;19.16;91.74
32733;BME280;11867;51.198;11.966;2023-05-23T06:31:31;100196.25;;;19.30;90.28
32733;BME280;11867;51.198;11.966;2023-05-23T06:32:55;100205.16;;;19.48;89.73
32733;BME280;11867;51.198;11.966;2023-05-23T06:34:18;100198.38;;;19.58;88.27
32733;BME280;11867;51.198;11.966;2023-05-23T06:35:41;100202.38;;;19.36;89.42
32733;BME280;11867;51.198;11.966;2023-05-23T06:37:04;100206.97;;;19.32;90.18
32733;BME280;11867;51.198;11.966;2023-05-23T06:38:28;100200.16;;;19.17;90.77
32733;BME280;11867;51.198;11.966;2023-05-23T06:39:54;100206.97;;;18.65;90.12
32733;BME280;11867;51.198;11.966;2023-05-23T06:41:16;100216.66;;;18.71;89.73
32733;BME280;11867;51.198;11.966;2023-05-23T06:42:39;100214.38;;;18.73;89.36
32733;BME280;11867;51.198;11.966;2023-05-23T06:44:01;100212.81;;;18.85;88.09
32733;BME280;11867;51.198;11.966;2023-05-23T06:45:23;100218.25;;;18.72;87.73
32733;BME280;11867;51.198;11.966;2023-05-23T06:46:46;100208.31;;;18.59;87.42
32733;BME280;11867;51.198;11.966;2023-05-23T06:48:11;100220.97;;;18.60;86.45
32733;BME280;11867;51.198;11.966;2023-05-23T06:49:33;100211.50;;;18.49;87.51
32733;BME280;11867;51.198;11.966;2023-05-23T06:50:56;100222.31;;;18.33;88.28
32733;BME280;11867;51.198;11.966;2023-05-23T06:52:19;100212.22;;;18.16;87.80
32733;BME280;11867;51.198;11.966;2023-05-23T06:53:42;100220.78;;;18.23;87.10
32733;BME280;11867;51.198;11.966;2023-05-23T06:55:06;100219.16;;;18.22;88.05
32733;BME280;11867;51.198;11.966;2023-05-23T06:56:28;100227.72;;;18.29;86.20
32733;BME280;11867;51.198;11.966;2023-05-23T06:57:51;100220.25;;;18.30;86.55
32733;BME280;11867;51.198;11.966;2023-05-23T06:59:14;100221.34;;;18.38;86.18
32733;BME280;11867;51.198;11.966;2023-05-23T07:00:37;100229.00;;;18.53;85.20
32733;BME280;11867;51.198;11.966;2023-05-23T07:02:01;100222.06;;;18.47;84.98
32733;BME280;11867;51.198;11.966;2023-05-23T07:03:25;100230.59;;;18.54;84.39
32733;BME280;11867;51.198;11.966;2023-05-23T07:04:48;100223.06;;;18.21;84.20
32733;BME280;11867;51.198;11.966;2023-05-23T07:06:11;100228.22;;;18.23;85.50
32733;BME280;11867;51.198;11.966;2023-05-23T07:07:34;100226.38;;;18.35;84.56
32733;BME280;11867;51.198;11.966;2023-05-23T07:08:57;100227.03;;;18.32;84.34
32733;BME280;11867;51.198;11.966;2023-05-23T07:10:20;100227.28;;;18.40;83.58